createdAt,value
2018-07-22T00:01:28.298Z,91.47
2018-07-22T00:04:32.592Z,91.59
2018-07-22T00:07:36.938Z,91.53
2018-07-22T00:10:41.235Z,91.77
2018-07-22T00:13:45.607Z,91.70
2018-07-22T00:16:50.181Z,92.40
2018-07-22T00:19:55.094Z,92.12
2018-07-22T00:23:00.137Z,92.08
2018-07-22T00:26:04.746Z,91.89
2018-07-22T00:29:09.096Z,91.96
2018-07-22T00:32:13.325Z,91.51
2018-07-22T00:35:17.805Z,91.86
2018-07-22T00:38:22.415Z,92.36
2018-07-22T00:41:26.680Z,92.58
2018-07-22T00:44:31.032Z,92.01
2018-07-22T00:47:35.757Z,92.33
2018-07-22T00:50:40.011Z,91.86
2018-07-22T00:53:44.284Z,92.54
2018-07-22T00:56:49.621Z,91.71
2018-07-22T00:59:54.023Z,92.18
2018-07-22T01:02:58.277Z,91.96
2018-07-22T01:06:02.766Z,91.93
2018-07-22T01:09:10.242Z,92.23
2018-07-22T01:12:14.525Z,92.06
2018-07-22T01:15:19.034Z,91.87
2018-07-22T01:18:23.344Z,92.40
2018-07-22T01:21:27.900Z,92.61
2018-07-22T01:24:32.177Z,93.05
2018-07-22T01:27:36.569Z,92.46
2018-07-22T01:30:40.920Z,93.23
2018-07-22T01:33:45.552Z,92.68
2018-07-22T01:36:49.933Z,92.79
2018-07-22T01:39:54.223Z,93.27
2018-07-22T01:42:58.480Z,93.32
2018-07-22T01:46:03.861Z,92.83
2018-07-22T01:49:08.191Z,93.00
2018-07-22T01:52:12.669Z,93.46
2018-07-22T01:55:16.994Z,92.75
2018-07-22T01:58:21.265Z,93.54
2018-07-22T02:01:28.384Z,93.67
2018-07-22T02:04:32.929Z,93.41
2018-07-22T02:07:37.203Z,93.79
2018-07-22T02:10:41.597Z,93.99
2018-07-22T02:13:45.972Z,93.62
2018-07-22T02:16:50.361Z,93.94
2018-07-22T02:19:54.611Z,93.49
2018-07-22T02:22:59.005Z,93.70
2018-07-22T02:26:03.512Z,93.93
2018-07-22T02:29:07.759Z,94.36
2018-07-22T02:32:12.167Z,93.63
2018-07-22T02:35:16.650Z,93.55
2018-07-22T02:38:21.124Z,93.55
2018-07-22T02:41:25.542Z,93.79
2018-07-22T02:44:30.070Z,93.96
2018-07-22T02:47:34.390Z,94.20
2018-07-22T02:50:39.188Z,94.12
2018-07-22T02:53:43.449Z,94.33
2018-07-22T02:56:47.711Z,94.66
2018-07-22T02:59:52.176Z,94.11
2018-07-22T03:02:56.438Z,94.71
2018-07-22T03:06:00.702Z,94.14
2018-07-22T03:09:07.204Z,94.58
2018-07-22T03:12:11.616Z,94.47
2018-07-22T03:15:15.964Z,94.72
2018-07-22T03:18:20.257Z,95.00
2018-07-22T03:21:24.978Z,95.17
2018-07-22T03:24:29.242Z,94.88
2018-07-22T03:27:33.525Z,95.02
2018-07-22T03:30:38.004Z,94.84
2018-07-22T03:33:42.526Z,95.11
2018-07-22T03:36:47.162Z,95.00
2018-07-22T03:39:51.915Z,95.22
2018-07-22T03:42:56.175Z,95.39
2018-07-22T03:46:00.192Z,95.71
2018-07-22T03:49:04.889Z,96.17
2018-07-22T03:52:09.156Z,95.98
2018-07-22T03:55:13.838Z,96.32
2018-07-22T03:58:18.098Z,95.94
2018-07-22T04:01:22.390Z,96.31
2018-07-22T04:04:27.065Z,96.13
2018-07-22T04:07:31.401Z,96.13
2018-07-22T04:10:35.717Z,96.33
2018-07-22T04:13:40.033Z,95.87
2018-07-22T04:16:44.673Z,95.84
2018-07-22T04:19:49.012Z,96.48
2018-07-22T04:22:53.380Z,96.48
2018-07-22T04:25:58.310Z,96.70
2018-07-22T04:29:02.635Z,96.37
2018-07-22T04:32:06.995Z,96.73
2018-07-22T04:35:11.993Z,96.71
2018-07-22T04:38:16.528Z,96.86
2018-07-22T04:41:20.801Z,96.82
2018-07-22T04:44:25.131Z,96.41
2018-07-22T04:47:29.906Z,96.90
2018-07-22T04:50:34.218Z,96.40
2018-07-22T04:53:38.344Z,96.02
2018-07-22T04:56:42.384Z,96.12
2018-07-22T04:59:46.882Z,96.42
2018-07-22T05:02:51.195Z,95.83
2018-07-22T05:05:56.367Z,95.84
2018-07-22T05:09:00.654Z,95.73
2018-07-22T05:12:05.427Z,95.83
2018-07-22T05:15:09.720Z,95.98
2018-07-22T05:18:14.241Z,96.50
2018-07-22T05:21:19.198Z,96.05
2018-07-22T05:24:23.475Z,95.49
2018-07-22T05:27:27.769Z,95.42
2018-07-22T05:30:32.230Z,96.21
2018-07-22T05:33:36.528Z,95.79
2018-07-22T05:36:41.004Z,95.39
2018-07-22T05:39:45.582Z,95.50
2018-07-22T05:42:49.964Z,95.65
2018-07-22T05:45:54.452Z,95.95
2018-07-22T05:48:59.224Z,96.13
2018-07-22T05:52:03.726Z,95.80
2018-07-22T05:55:08.084Z,95.58
2018-07-22T05:58:12.394Z,95.51
2018-07-22T06:01:16.774Z,95.64
2018-07-22T06:04:21.201Z,95.58
2018-07-22T06:07:25.220Z,95.74
2018-07-22T06:10:29.613Z,95.31
2018-07-22T06:13:33.960Z,95.49
2018-07-22T06:16:38.432Z,95.51
2018-07-22T06:19:42.686Z,95.54
2018-07-22T06:22:47.088Z,95.07
2018-07-22T06:25:51.562Z,94.61
2018-07-22T06:28:55.920Z,95.28
2018-07-22T06:32:00.276Z,95.60
2018-07-22T06:35:05.014Z,95.55
2018-07-22T06:38:09.629Z,95.28
2018-07-22T06:41:14.263Z,95.94
2018-07-22T06:44:18.494Z,95.73
2018-07-22T06:47:23.852Z,95.32
2018-07-22T06:50:28.541Z,95.08
2018-07-22T06:53:32.902Z,95.66
2018-07-22T06:56:37.141Z,95.88
2018-07-22T06:59:41.489Z,95.62
2018-07-22T07:02:46.186Z,95.87
2018-07-22T07:05:50.481Z,95.92
2018-07-22T07:08:54.858Z,96.75
2018-07-22T07:11:59.477Z,96.61
2018-07-22T07:15:04.329Z,96.42
2018-07-22T07:18:08.797Z,97.41
2018-07-22T07:21:13.386Z,98.27
2018-07-22T07:24:17.673Z,97.77
2018-07-22T07:27:22.429Z,97.25
2018-07-22T07:30:26.775Z,97.52
2018-07-22T07:33:31.116Z,97.78
2018-07-22T07:36:35.414Z,97.71
2018-07-22T07:39:39.992Z,97.29
2018-07-22T07:42:44.581Z,97.91
2018-07-22T07:45:48.956Z,97.57
2018-07-22T07:48:53.500Z,97.63
2018-07-22T07:51:58.049Z,97.94
2018-07-22T07:55:02.325Z,97.60
2018-07-22T07:58:06.631Z,97.66
2018-07-22T08:01:11.371Z,97.63
2018-07-22T08:04:15.424Z,97.21
2018-07-22T08:07:19.817Z,97.69
2018-07-22T08:10:24.099Z,96.66
2018-07-22T08:13:28.517Z,95.97
2018-07-22T08:16:33.224Z,95.54
2018-07-22T08:19:37.558Z,95.34
2018-07-22T08:22:42.545Z,95.57
2018-07-22T08:25:47.096Z,95.55
2018-07-22T08:29:30.181Z,94.74
2018-07-22T08:32:34.675Z,95.81
2018-07-22T08:35:38.995Z,95.83
2018-07-22T08:38:43.376Z,95.43
2018-07-22T08:41:48.146Z,96.26
2018-07-22T08:44:52.656Z,99.62
2018-07-22T08:47:56.987Z,97.67
2018-07-22T08:51:01.313Z,96.86
2018-07-22T08:54:05.915Z,96.47
2018-07-22T08:57:10.750Z,96.42
2018-07-22T09:00:15.129Z,96.17
2018-07-22T09:03:19.723Z,96.07
2018-07-22T09:06:25.236Z,95.89
2018-07-22T09:09:30.476Z,96.05
2018-07-22T09:12:35.060Z,95.25
2018-07-22T09:15:39.448Z,95.41
2018-07-22T09:18:43.786Z,95.00
2018-07-22T09:21:48.285Z,94.13
2018-07-22T09:24:52.508Z,93.84
2018-07-22T09:27:57.140Z,94.04
2018-07-22T09:31:01.664Z,94.06
2018-07-22T09:34:06.189Z,94.13
2018-07-22T09:37:10.442Z,93.72
2018-07-22T09:40:14.997Z,94.23
2018-07-22T09:43:19.402Z,93.38
2018-07-22T09:46:23.766Z,94.14
2018-07-22T09:49:28.175Z,92.71
2018-07-22T09:52:32.583Z,91.79
2018-07-22T09:55:37.038Z,91.19
2018-07-22T09:58:41.585Z,91.87
2018-07-22T10:01:45.937Z,91.20
2018-07-22T10:04:50.505Z,91.75
2018-07-22T10:07:54.946Z,92.38
2018-07-22T10:10:59.371Z,92.42
2018-07-22T10:14:04.684Z,91.29
2018-07-22T10:17:09.099Z,90.03
2018-07-22T10:20:13.758Z,91.44
2018-07-22T10:23:18.212Z,90.99
2018-07-22T10:26:22.530Z,92.11
2018-07-22T10:29:26.865Z,92.32
2018-07-22T10:32:31.210Z,93.60
2018-07-22T10:35:36.093Z,95.11
2018-07-22T10:38:40.597Z,93.98
2018-07-22T10:41:44.961Z,92.25
2018-07-22T10:44:49.340Z,91.51
2018-07-22T10:47:53.833Z,89.09
2018-07-22T10:50:58.263Z,89.72
2018-07-22T10:54:02.636Z,88.84
2018-07-22T10:57:07.056Z,89.02
2018-07-22T11:00:11.445Z,90.08
2018-07-22T11:03:15.903Z,91.57
2018-07-22T11:06:20.285Z,91.80
2018-07-22T11:09:25.085Z,91.67
2018-07-22T11:12:29.740Z,92.01
2018-07-22T11:15:34.539Z,91.68
2018-07-22T11:18:39.176Z,93.63
2018-07-22T11:21:44.020Z,93.08
2018-07-22T11:24:48.576Z,91.54
2018-07-22T11:27:53.324Z,92.18
2018-07-22T11:30:57.945Z,92.54
2018-07-22T11:34:02.577Z,92.65
2018-07-22T11:37:07.037Z,92.00
2018-07-22T11:40:11.428Z,93.20
2018-07-22T11:43:16.242Z,93.45
2018-07-22T11:46:20.861Z,92.35
2018-07-22T11:49:25.188Z,92.29
2018-07-22T11:52:29.451Z,92.57
2018-07-22T11:55:33.849Z,92.78
2018-07-22T11:58:38.142Z,92.48
2018-07-22T12:01:42.451Z,93.74
2018-07-22T12:04:46.746Z,93.69
2018-07-22T12:07:51.014Z,93.77
2018-07-22T12:10:55.465Z,94.00
2018-07-22T12:13:59.833Z,94.37
2018-07-22T12:17:04.140Z,94.51
2018-07-22T12:20:08.405Z,93.61
2018-07-22T12:23:12.654Z,93.85
2018-07-22T12:26:17.244Z,93.71
2018-07-22T12:29:21.617Z,93.49
2018-07-22T12:32:25.954Z,93.74
2018-07-22T12:35:30.577Z,93.92
2018-07-22T12:38:34.788Z,94.35
2018-07-22T12:41:39.438Z,93.35
2018-07-22T12:44:43.641Z,93.61
2018-07-22T12:47:48.284Z,93.53
2018-07-22T12:50:52.665Z,93.89
2018-07-22T12:53:57.062Z,93.66
2018-07-22T12:57:02.171Z,95.12
2018-07-22T13:00:07.157Z,94.66
2018-07-22T13:03:11.455Z,94.45
2018-07-22T13:06:15.916Z,94.75
2018-07-22T13:09:20.355Z,94.78
2018-07-22T13:12:24.798Z,94.32
2018-07-22T13:15:29.557Z,93.41
2018-07-22T13:18:33.840Z,93.00
2018-07-22T13:21:38.606Z,91.92
2018-07-22T13:24:43.017Z,92.19
2018-07-22T13:27:47.610Z,93.52
2018-07-22T13:30:52.104Z,93.02
2018-07-22T13:33:56.557Z,92.73
2018-07-22T13:37:01.191Z,92.93
2018-07-22T13:40:06.359Z,92.96
2018-07-22T13:43:10.768Z,91.50
2018-07-22T13:46:15.943Z,92.10
2018-07-22T13:49:20.577Z,91.50
2018-07-22T13:52:25.416Z,91.42
2018-07-22T13:55:29.922Z,92.77
2018-07-22T13:58:34.197Z,91.72
2018-07-22T14:01:39.092Z,91.34
2018-07-22T14:04:43.389Z,89.07
2018-07-22T14:07:47.901Z,88.38
2018-07-22T14:10:52.549Z,84.53
2018-07-22T14:13:56.869Z,83.88
2018-07-22T14:17:01.240Z,83.24
2018-07-22T14:20:06.318Z,83.54
2018-07-22T14:23:10.645Z,83.15
2018-07-22T14:26:15.417Z,84.79
2018-07-22T14:29:20.689Z,85.27
2018-07-22T14:32:25.236Z,86.16
2018-07-22T14:35:29.984Z,85.35
2018-07-22T14:38:34.429Z,87.50
2018-07-22T14:41:38.761Z,87.47
2018-07-22T14:44:43.045Z,88.46
2018-07-22T14:47:47.581Z,90.77
2018-07-22T14:50:52.033Z,90.30
2018-07-22T14:53:56.365Z,90.88
2018-07-22T14:57:00.917Z,91.04
2018-07-22T15:00:39.499Z,90.48
2018-07-22T15:03:46.825Z,89.90
2018-07-22T15:06:51.261Z,89.96
2018-07-22T15:09:55.685Z,89.23
2018-07-22T15:13:00.170Z,88.93
2018-07-22T15:16:05.392Z,89.16
2018-07-22T15:19:09.805Z,89.65
2018-07-22T15:22:14.361Z,90.15
2018-07-22T15:25:19.253Z,90.23
2018-07-22T15:28:23.810Z,90.66
2018-07-22T15:31:27.999Z,89.50
2018-07-22T15:34:32.359Z,89.42
2018-07-22T15:37:36.771Z,89.57
2018-07-22T15:40:41.476Z,88.96
2018-07-22T15:43:45.862Z,90.74
2018-07-22T15:46:50.185Z,89.95
2018-07-22T15:49:55.489Z,89.31
2018-07-22T15:53:00.042Z,89.18
2018-07-22T15:56:04.701Z,89.71
2018-07-22T15:59:09.606Z,90.23
2018-07-22T16:02:14.464Z,89.46
2018-07-22T16:05:18.799Z,88.70
2018-07-22T16:08:23.294Z,88.36
2018-07-22T16:11:27.774Z,87.90
2018-07-22T16:14:32.321Z,89.36
2018-07-22T16:17:36.811Z,88.90
2018-07-22T16:20:41.177Z,87.70
2018-07-22T16:23:45.592Z,88.58
2018-07-22T16:26:50.216Z,88.34
2018-07-22T16:29:54.890Z,86.73
2018-07-22T16:33:00.333Z,87.00
2018-07-22T16:36:04.799Z,86.64
2018-07-22T16:39:10.773Z,86.52
2018-07-22T16:42:15.223Z,85.61
2018-07-22T16:45:20.012Z,87.04
2018-07-22T16:48:24.501Z,87.61
2018-07-22T16:51:28.796Z,87.08
2018-07-22T16:54:33.348Z,85.97
2018-07-22T16:57:37.650Z,85.63
2018-07-22T17:00:42.093Z,85.04
2018-07-22T17:03:46.605Z,85.25
2018-07-22T17:06:51.276Z,86.52
2018-07-22T17:10:01.345Z,90.19
2018-07-22T17:13:06.029Z,89.11
2018-07-22T17:16:10.700Z,88.23
2018-07-22T17:19:15.182Z,88.00
2018-07-22T17:22:19.517Z,88.59
2018-07-22T17:25:23.953Z,88.78
2018-07-22T17:28:29.516Z,89.00
2018-07-22T17:31:34.038Z,88.90
2018-07-22T17:34:38.456Z,89.02
2018-07-22T17:37:42.944Z,89.45
2018-07-22T17:40:48.170Z,90.37
2018-07-22T17:43:54.067Z,90.40
2018-07-22T17:46:59.232Z,91.52
2018-07-22T17:50:04.606Z,92.78
2018-07-22T17:53:10.804Z,92.17
2018-07-22T17:56:19.691Z,91.88
2018-07-22T17:59:25.299Z,92.57
2018-07-22T18:02:29.796Z,92.98
2018-07-22T18:05:35.176Z,93.64
2018-07-22T18:08:39.506Z,94.03
2018-07-22T18:11:44.902Z,94.57
2018-07-22T18:14:49.153Z,94.53
2018-07-22T18:17:53.632Z,95.35
2018-07-22T18:20:58.039Z,95.07
2018-07-22T18:24:02.423Z,95.26
2018-07-22T18:27:07.234Z,95.08
2018-07-22T18:30:11.651Z,95.01
2018-07-22T18:33:15.940Z,95.08
2018-07-22T18:36:20.282Z,95.33
2018-07-22T18:39:29.073Z,95.69
2018-07-22T18:42:33.674Z,95.71
2018-07-22T18:45:38.797Z,95.83
2018-07-22T18:48:43.204Z,96.06
2018-07-22T18:51:47.477Z,95.35
2018-07-22T18:54:51.815Z,95.49
2018-07-22T18:57:56.416Z,95.47
2018-07-22T19:01:00.790Z,95.07
2018-07-22T19:04:05.693Z,95.32
2018-07-22T19:07:11.989Z,95.23
2018-07-22T19:10:16.489Z,95.32
2018-07-22T19:13:20.881Z,95.55
2018-07-22T19:16:25.192Z,95.13
2018-07-22T19:19:30.150Z,95.67
2018-07-22T19:22:34.622Z,95.19
2018-07-22T19:25:39.078Z,94.94
2018-07-22T19:28:43.643Z,95.15
2018-07-22T19:31:47.989Z,94.94
2018-07-22T19:34:52.705Z,95.05
2018-07-22T19:37:57.150Z,95.45
2018-07-22T19:41:01.637Z,95.59
2018-07-22T19:44:06.570Z,95.31
2018-07-22T19:47:11.572Z,95.35
2018-07-22T19:50:16.808Z,95.03
2018-07-22T19:53:21.601Z,95.14
2018-07-22T19:56:26.113Z,94.86
2018-07-22T19:59:30.936Z,95.34
2018-07-22T20:02:35.820Z,95.51
2018-07-22T20:05:40.245Z,95.96
2018-07-22T20:08:44.686Z,95.89
2018-07-22T20:11:49.115Z,96.23
2018-07-22T20:14:54.751Z,96.22
2018-07-22T20:17:59.522Z,96.03
2018-07-22T20:21:03.919Z,95.83
2018-07-22T20:24:08.490Z,95.74
2018-07-22T20:27:13.093Z,96.34
2018-07-22T20:30:17.780Z,95.88
2018-07-22T20:33:23.107Z,95.95
2018-07-22T20:36:27.372Z,95.41
2018-07-22T20:39:31.648Z,95.63
2018-07-22T20:42:36.154Z,95.80
2018-07-22T20:45:40.551Z,95.77
2018-07-22T20:48:44.874Z,95.36
2018-07-22T20:51:49.161Z,95.27
2018-07-22T20:54:53.541Z,95.89
2018-07-22T20:57:57.882Z,95.91
2018-07-22T21:01:02.428Z,95.97
2018-07-22T21:04:06.711Z,96.15
2018-07-22T21:07:11.270Z,96.13
2018-07-22T21:10:16.033Z,95.91
2018-07-22T21:13:23.119Z,96.31
2018-07-22T21:16:27.564Z,96.50
2018-07-22T21:19:31.852Z,96.58
2018-07-22T21:22:36.218Z,96.33
2018-07-22T21:25:40.801Z,96.66
2018-07-22T21:28:45.102Z,96.93
2018-07-22T21:31:49.828Z,97.29
2018-07-22T21:34:54.242Z,97.56
2018-07-22T21:37:58.678Z,97.07
2018-07-22T21:41:02.963Z,96.99
2018-07-22T21:44:07.254Z,96.90
2018-07-22T21:47:12.450Z,96.97
2018-07-22T21:50:16.785Z,96.84
2018-07-22T21:53:21.371Z,97.24
2018-07-22T21:56:25.668Z,96.99
2018-07-22T21:59:30.645Z,97.32
2018-07-22T22:02:35.678Z,96.83
2018-07-22T22:05:40.026Z,96.94
2018-07-22T22:08:44.307Z,96.75
2018-07-22T22:11:48.578Z,96.66
2018-07-22T22:14:52.890Z,96.92
2018-07-22T22:18:00.103Z,96.63
2018-07-22T22:21:04.395Z,96.60
2018-07-22T22:24:08.843Z,96.61
2018-07-22T22:27:13.134Z,96.58
2018-07-22T22:30:18.373Z,96.78
2018-07-22T22:33:22.942Z,96.97
2018-07-22T22:36:27.676Z,96.29
2018-07-22T22:39:31.956Z,96.35
2018-07-22T22:42:36.316Z,96.79
2018-07-22T22:45:40.711Z,96.89
2018-07-22T22:48:44.997Z,96.50
2018-07-22T22:51:49.302Z,96.41
2018-07-22T22:54:53.760Z,96.88
2018-07-22T22:58:15.046Z,96.98
2018-07-22T23:01:20.325Z,97.13
2018-07-22T23:04:24.670Z,96.97
2018-07-22T23:07:29.187Z,96.88
2018-07-22T23:10:33.494Z,97.14
2018-07-22T23:13:38.224Z,97.39
2018-07-22T23:16:42.649Z,97.04
2018-07-22T23:19:47.655Z,96.94
2018-07-22T23:22:52.009Z,97.12
2018-07-22T23:25:56.484Z,97.12
2018-07-22T23:29:01.269Z,96.85
2018-07-22T23:32:05.573Z,96.53
2018-07-22T23:35:10.148Z,96.52
2018-07-22T23:38:14.542Z,96.94
2018-07-22T23:41:19.153Z,96.59
2018-07-22T23:44:23.911Z,97.11
2018-07-22T23:47:28.238Z,97.01
2018-07-22T23:50:33.363Z,97.27
2018-07-22T23:53:37.669Z,97.12
2018-07-22T23:56:42.112Z,97.21
2018-07-22T23:59:46.393Z,97.30
